This is the latest recevied weather packets stored in our database for station/object WB7AAV. If no packets are shown the sender has not sent any weather packets the latest 10 day(s).
| Time | Temp. | Humidity | Pressure | Rain* | Wind** | Luminosity | Snow |
|---|---|---|---|---|---|---|---|
| 1777846502 | 20.56° C | 18% | 1013.2 hPa | 0 mm | - | - | - |
| 1777845903 | 20° C | 19% | 1013.4 hPa | 0 mm | - | - | - |
| 1777845601 | 20° C | 18% | 1013.5 hPa | 0 mm | - | - | - |
| 1777843801 | 20° C | 18% | 1014 hPa | 0 mm | - | - | - |
| 1777841786 | 20° C | 20% | 1014.8 hPa | 0 mm | - | - | - |
| 1777839597 | 20° C | 18% | 1015.2 hPa | 0 mm | - | - | - |
| 1777839294 | 20° C | 20% | 1015.2 hPa | 0 mm | - | - | - |
| 1777838695 | 20° C | 17% | 1015.3 hPa | 0 mm | - | - | - |
| 1777837495 | 19.44° C | 18% | 1015.4 hPa | 0 mm | - | - | - |
| 1777835995 | 18.89° C | 20% | 1015.9 hPa | 0 mm | - | - | - |
| 1777832393 | 18.89° C | 21% | 1017.1 hPa | 0 mm | - | - | - |
| 1777832092 | 18.89° C | 21% | 1017.2 hPa | 0 mm | - | - | - |
| 1777831197 | 18.89° C | 19% | 1017.5 hPa | 0 mm | - | - | - |
| 1777828197 | 17.22° C | 24% | 1018.4 hPa | 0 mm | - | - | - |
| 1777825485 | 17.22° C | 23% | 1018.7 hPa | 0 mm | - | - | - |
| 1777824585 | 16.67° C | 22% | 1018.8 hPa | 0 mm | - | - | - |
| 1777824286 | 16.67° C | 25% | 1018.8 hPa | 0 mm | - | - | - |
| 1777821885 | 15.56° C | 27% | 1018.9 hPa | 0 mm | - | - | - |
| 1777819189 | 13.89° C | 32% | 1019.2 hPa | 0 mm | - | - | - |
| 1777819183 | 13.89° C | 31% | 1019.2 hPa | 0 mm | - | - | - |
| 1777818584 | 13.89° C | 32% | 1019.2 hPa | 0 mm | - | - | - |
| 1777810777 | 8.89° C | 39% | 1018.7 hPa | 0 mm | - | - | - |
| 1777809575 | 9.44° C | 37% | 1018.4 hPa | 0 mm | - | - | - |
| 1777807771 | 9.44° C | 36% | 1018.4 hPa | 0 mm | - | - | - |
| 1777807171 | 9.44° C | 37% | 1018.3 hPa | 0 mm | - | - | - |
* Rain latest hour (hover to see other rain measurements)
** Current wind speed in m/s (hover to see current wind gust speed)